createdAt,value
2023-06-16T00:00:51.947Z,0.00
2023-06-16T00:01:52.062Z,0.00
2023-06-16T00:02:51.977Z,0.00
2023-06-16T00:03:51.946Z,0.00
2023-06-16T00:04:51.930Z,0.00
2023-06-16T00:05:51.901Z,0.00
2023-06-16T00:06:51.878Z,0.00
2023-06-16T00:07:51.862Z,0.00
2023-06-16T00:08:51.845Z,0.00
2023-06-16T00:09:51.878Z,0.00
2023-06-16T00:10:51.830Z,0.00
2023-06-16T00:11:51.841Z,0.00
2023-06-16T00:12:51.835Z,0.00
2023-06-16T00:13:51.807Z,0.00
2023-06-16T00:14:51.795Z,0.00
2023-06-16T00:15:51.784Z,0.00
2023-06-16T00:16:51.779Z,0.00
2023-06-16T00:17:51.801Z,0.00
2023-06-16T00:18:51.761Z,0.00
2023-06-16T00:19:51.750Z,0.00
2023-06-16T00:20:51.717Z,0.00
2023-06-16T00:21:51.762Z,0.00
2023-06-16T00:22:51.737Z,0.00
2023-06-16T00:23:51.717Z,0.00
2023-06-16T00:24:51.684Z,0.00
2023-06-16T00:25:51.679Z,0.00
2023-06-16T00:26:51.670Z,0.00
2023-06-16T00:27:51.713Z,0.00
2023-06-16T00:28:51.632Z,0.00
2023-06-16T00:29:51.655Z,0.00
2023-06-16T00:30:51.632Z,0.00
2023-06-16T00:31:51.607Z,0.00
2023-06-16T00:32:51.630Z,0.00
2023-06-16T00:33:51.585Z,0.00
2023-06-16T00:34:51.563Z,0.00
2023-06-16T00:35:51.571Z,0.00
2023-06-16T00:36:51.608Z,0.00
2023-06-16T00:37:51.552Z,0.00
2023-06-16T00:38:51.605Z,0.00
2023-06-16T00:39:51.534Z,0.00
2023-06-16T00:40:51.515Z,0.00
2023-06-16T00:41:51.510Z,0.00
2023-06-16T00:42:51.481Z,0.00
2023-06-16T00:43:51.485Z,0.00
2023-06-16T00:44:51.489Z,0.00
2023-06-16T00:45:51.496Z,0.00
2023-06-16T00:46:51.540Z,0.00
2023-06-16T00:47:51.502Z,0.00
2023-06-16T00:48:51.462Z,0.00
2023-06-16T00:49:51.402Z,0.00
2023-06-16T00:50:51.384Z,0.00
2023-06-16T00:51:51.374Z,0.00
2023-06-16T00:52:51.431Z,0.00
2023-06-16T00:53:51.414Z,0.00
2023-06-16T00:54:51.348Z,0.00
2023-06-16T00:55:51.392Z,0.00
2023-06-16T00:56:51.324Z,0.00
2023-06-16T00:57:51.348Z,0.00
2023-06-16T00:58:51.341Z,0.00
2023-06-16T00:59:51.293Z,0.00
2023-06-16T01:00:51.316Z,0.00
2023-06-16T01:01:51.314Z,0.00
2023-06-16T01:02:51.545Z,0.00
2023-06-16T01:03:51.256Z,0.00
2023-06-16T01:04:51.240Z,0.00
2023-06-16T01:05:51.254Z,0.00
2023-06-16T01:06:51.231Z,0.00
2023-06-16T01:07:51.223Z,0.00
2023-06-16T01:08:51.188Z,0.00
2023-06-16T01:09:51.191Z,0.00
2023-06-16T01:10:51.173Z,0.00
2023-06-16T01:11:51.182Z,0.00
2023-06-16T01:12:51.179Z,0.00
2023-06-16T01:13:51.147Z,0.00
2023-06-16T01:14:51.129Z,0.00
2023-06-16T01:15:51.134Z,0.00
2023-06-16T01:16:51.115Z,0.00
2023-06-16T01:17:51.156Z,0.00
2023-06-16T01:18:51.152Z,0.00
2023-06-16T01:19:51.097Z,0.00
2023-06-16T01:20:51.055Z,0.00
2023-06-16T01:21:51.059Z,0.00
2023-06-16T01:22:51.090Z,0.00
2023-06-16T01:23:51.074Z,0.00
2023-06-16T01:24:51.056Z,0.00
2023-06-16T01:25:51.018Z,0.00
2023-06-16T01:26:51.001Z,0.00
2023-06-16T01:27:50.979Z,0.00
2023-06-16T01:28:50.978Z,0.00
2023-06-16T01:29:50.989Z,0.00
2023-06-16T01:30:50.969Z,0.00
2023-06-16T01:31:50.942Z,0.00
2023-06-16T01:32:50.999Z,0.00
2023-06-16T01:33:50.911Z,0.00
2023-06-16T01:34:50.911Z,0.00
2023-06-16T01:35:50.914Z,0.00
2023-06-16T01:36:50.918Z,0.00
2023-06-16T01:37:50.869Z,0.00
2023-06-16T01:38:50.871Z,0.00
2023-06-16T01:39:50.852Z,0.00
2023-06-16T01:40:50.854Z,0.00
2023-06-16T01:41:50.842Z,0.00
2023-06-16T01:42:50.979Z,0.00
2023-06-16T01:43:50.813Z,0.00
2023-06-16T01:44:50.842Z,0.00
2023-06-16T01:45:50.822Z,0.00
2023-06-16T01:46:50.852Z,0.00
2023-06-16T01:47:50.820Z,0.00
2023-06-16T01:48:50.771Z,0.00
2023-06-16T01:49:50.750Z,0.00
2023-06-16T01:50:50.745Z,0.00
2023-06-16T01:51:50.733Z,0.00
2023-06-16T01:52:50.714Z,0.00
2023-06-16T01:53:50.711Z,0.00
2023-06-16T01:54:50.737Z,0.00
2023-06-16T01:55:50.682Z,0.00
2023-06-16T01:56:50.659Z,0.00
2023-06-16T01:57:50.711Z,0.00
2023-06-16T01:58:50.665Z,0.00
2023-06-16T01:59:50.646Z,0.00
2023-06-16T02:00:50.637Z,0.00
2023-06-16T02:01:50.619Z,0.00
2023-06-16T02:02:50.749Z,0.00
2023-06-16T02:03:50.806Z,0.00
2023-06-16T02:04:50.574Z,0.00
2023-06-16T02:05:50.590Z,0.00
2023-06-16T02:06:50.611Z,0.00
2023-06-16T02:07:50.569Z,0.00
2023-06-16T02:08:50.521Z,0.00
2023-06-16T02:09:50.540Z,0.00
2023-06-16T02:10:50.510Z,0.00
2023-06-16T02:11:50.515Z,0.00
2023-06-16T02:12:50.504Z,0.00
2023-06-16T02:13:50.472Z,0.00
2023-06-16T02:14:50.450Z,0.00
2023-06-16T02:15:50.542Z,0.00
2023-06-16T02:16:50.475Z,0.00
2023-06-16T02:17:50.460Z,0.00
2023-06-16T02:18:50.519Z,0.00
2023-06-16T02:19:50.428Z,0.00
2023-06-16T02:20:50.401Z,0.00
2023-06-16T02:21:50.408Z,0.00
2023-06-16T02:22:50.380Z,0.00
2023-06-16T02:23:50.394Z,0.00
2023-06-16T02:24:50.369Z,0.00
2023-06-16T02:25:50.332Z,0.00
2023-06-16T02:26:50.327Z,0.00
2023-06-16T02:27:50.337Z,0.00
2023-06-16T02:28:50.309Z,0.00
2023-06-16T02:29:50.309Z,0.00
2023-06-16T02:30:50.327Z,0.00
2023-06-16T02:31:50.392Z,0.00
2023-06-16T02:33:01.515Z,0.00
2023-06-16T02:33:50.320Z,0.00
2023-06-16T02:34:50.239Z,0.00
2023-06-16T02:35:50.201Z,1.00
2023-06-16T02:36:50.170Z,1.00
2023-06-16T02:37:50.214Z,0.00
2023-06-16T02:38:50.202Z,0.00
2023-06-16T02:39:50.180Z,0.00
2023-06-16T02:40:50.193Z,0.00
2023-06-16T02:41:50.251Z,0.00
2023-06-16T02:42:50.143Z,0.00
2023-06-16T02:43:50.142Z,0.00
2023-06-16T02:44:50.116Z,1.00
2023-06-16T02:45:50.085Z,2.00
2023-06-16T02:46:50.157Z,3.00
2023-06-16T02:47:50.101Z,3.00
2023-06-16T02:48:50.049Z,3.00
2023-06-16T02:49:50.057Z,4.00
2023-06-16T02:50:49.999Z,4.00
2023-06-16T02:51:49.990Z,3.00
2023-06-16T02:52:50.049Z,1.00
2023-06-16T02:53:49.979Z,6.00
2023-06-16T02:54:50.014Z,4.00
2023-06-16T02:55:49.962Z,3.00
2023-06-16T02:56:49.947Z,3.00
2023-06-16T02:57:49.969Z,5.00
2023-06-16T02:58:49.968Z,7.00
2023-06-16T02:59:49.963Z,5.00
2023-06-16T03:00:49.916Z,3.00
2023-06-16T03:01:49.876Z,5.00
2023-06-16T03:02:50.016Z,7.00
2023-06-16T03:03:49.868Z,8.00
2023-06-16T03:04:49.926Z,8.00
2023-06-16T03:05:49.858Z,12.00
2023-06-16T03:06:49.825Z,11.00
2023-06-16T03:07:49.822Z,10.00
2023-06-16T03:08:49.819Z,11.00
2023-06-16T03:09:49.834Z,11.00
2023-06-16T03:10:49.784Z,15.00
2023-06-16T03:11:49.801Z,15.00
2023-06-16T03:12:49.781Z,18.00
2023-06-16T03:13:49.736Z,19.00
2023-06-16T03:14:49.730Z,14.00
2023-06-16T03:15:49.731Z,13.00
2023-06-16T03:16:49.834Z,19.00
2023-06-16T03:17:49.729Z,23.00
2023-06-16T03:18:49.680Z,24.00
2023-06-16T03:19:49.680Z,23.00
2023-06-16T03:20:49.658Z,24.00
2023-06-16T03:21:49.649Z,24.00
2023-06-16T03:22:49.648Z,26.00
2023-06-16T03:23:49.642Z,25.00
2023-06-16T03:24:49.615Z,25.00
2023-06-16T03:25:49.609Z,26.00
2023-06-16T03:26:49.593Z,31.00
2023-06-16T03:27:49.591Z,34.00
2023-06-16T03:28:49.573Z,35.00
2023-06-16T03:29:49.555Z,35.00
2023-06-16T03:30:49.547Z,37.00
2023-06-16T03:31:49.534Z,37.00
2023-06-16T03:32:49.608Z,42.00
2023-06-16T03:33:49.513Z,44.00
2023-06-16T03:34:49.516Z,44.00
2023-06-16T03:35:49.492Z,46.00
2023-06-16T03:36:49.503Z,45.00
2023-06-16T03:37:49.475Z,48.00
2023-06-16T03:38:49.453Z,50.00
2023-06-16T03:39:49.443Z,51.00
2023-06-16T03:40:49.449Z,57.00
2023-06-16T03:41:49.428Z,57.00
2023-06-16T03:42:49.410Z,60.00
2023-06-16T03:43:49.398Z,58.00
2023-06-16T03:44:49.414Z,63.00
2023-06-16T03:45:49.452Z,63.00
2023-06-16T03:46:49.377Z,64.00
2023-06-16T03:47:49.454Z,63.00
2023-06-16T03:48:49.371Z,64.00
2023-06-16T03:49:49.350Z,69.00
2023-06-16T03:50:49.320Z,66.00
2023-06-16T03:51:49.308Z,68.00
2023-06-16T03:52:56.429Z,71.00
2023-06-16T03:53:49.299Z,71.00
2023-06-16T03:54:49.285Z,74.00
2023-06-16T03:55:49.269Z,79.00
2023-06-16T03:56:49.262Z,82.00
2023-06-16T03:57:49.239Z,82.00
2023-06-16T03:58:49.233Z,86.00
2023-06-16T03:59:49.238Z,81.00
2023-06-16T04:00:49.217Z,81.00
2023-06-16T04:01:49.351Z,82.00
2023-06-16T04:02:49.205Z,104.00
2023-06-16T04:03:49.239Z,102.00
2023-06-16T04:04:49.204Z,102.00
2023-06-16T04:05:49.158Z,114.00
2023-06-16T04:06:49.159Z,118.00
2023-06-16T04:07:49.125Z,119.00
2023-06-16T04:08:50.927Z,125.00
2023-06-16T04:09:49.133Z,114.00
2023-06-16T04:10:49.121Z,110.00
2023-06-16T04:11:49.095Z,115.00
2023-06-16T04:12:49.082Z,102.00
2023-06-16T04:13:49.069Z,121.00
2023-06-16T04:14:49.060Z,119.00
2023-06-16T04:15:49.046Z,138.00
2023-06-16T04:16:49.062Z,143.00
2023-06-16T04:17:49.079Z,130.00
2023-06-16T04:18:49.041Z,125.00
2023-06-16T04:19:49.000Z,144.00
2023-06-16T04:20:48.991Z,146.00
2023-06-16T04:21:48.979Z,156.00
2023-06-16T04:22:48.986Z,151.00
2023-06-16T04:23:48.975Z,113.00
2023-06-16T04:24:48.944Z,106.00
2023-06-16T04:25:48.932Z,137.00
2023-06-16T04:26:48.916Z,141.00
2023-06-16T04:27:48.912Z,107.00
2023-06-16T04:28:48.914Z,137.00
2023-06-16T04:29:48.887Z,135.00
2023-06-16T04:30:48.895Z,114.00
2023-06-16T04:31:48.902Z,105.00
2023-06-16T04:32:48.915Z,102.00
2023-06-16T04:33:48.859Z,100.00
2023-06-16T04:34:48.849Z,93.00
2023-06-16T04:35:48.855Z,83.00
2023-06-16T04:36:48.822Z,96.00
2023-06-16T04:37:48.800Z,87.00
2023-06-16T04:38:48.782Z,84.00
2023-06-16T04:39:48.870Z,84.00
2023-06-16T04:40:48.840Z,85.00
2023-06-16T04:41:48.832Z,83.00
2023-06-16T04:42:48.780Z,82.00
2023-06-16T04:43:48.809Z,85.00
2023-06-16T04:44:48.738Z,85.00
2023-06-16T04:45:48.836Z,85.00
2023-06-16T04:46:48.723Z,82.00
2023-06-16T04:47:48.737Z,81.00
2023-06-16T04:48:48.695Z,81.00
2023-06-16T04:49:48.683Z,81.00
2023-06-16T04:50:48.674Z,88.00
2023-06-16T04:51:48.645Z,89.00
2023-06-16T04:52:48.637Z,91.00
2023-06-16T04:53:48.629Z,99.00
2023-06-16T04:54:48.610Z,111.00
2023-06-16T04:55:48.602Z,119.00
2023-06-16T04:56:48.592Z,118.00
2023-06-16T04:57:48.580Z,115.00
2023-06-16T04:58:48.621Z,122.00
2023-06-16T04:59:48.561Z,128.00
2023-06-16T05:00:48.552Z,126.00
2023-06-16T05:01:48.547Z,137.00
2023-06-16T05:02:48.575Z,144.00
2023-06-16T05:03:48.601Z,144.00
2023-06-16T05:04:48.504Z,143.00
2023-06-16T05:05:48.498Z,140.00
2023-06-16T05:06:48.483Z,134.00
2023-06-16T05:07:48.471Z,139.00
2023-06-16T05:08:48.499Z,131.00
2023-06-16T05:09:48.484Z,125.00
2023-06-16T05:10:48.469Z,125.00
2023-06-16T05:11:48.438Z,123.00
2023-06-16T05:12:48.409Z,116.00
2023-06-16T05:13:48.409Z,113.00
2023-06-16T05:14:48.392Z,115.00
2023-06-16T05:15:48.374Z,114.00
2023-06-16T05:16:48.430Z,120.00
2023-06-16T05:17:48.471Z,127.00
2023-06-16T05:18:48.455Z,129.00
2023-06-16T05:19:48.337Z,129.00
2023-06-16T05:20:48.331Z,134.00
2023-06-16T05:21:48.306Z,141.00
2023-06-16T05:22:48.308Z,151.00
2023-06-16T05:23:48.331Z,160.00
2023-06-16T05:24:48.282Z,167.00
2023-06-16T05:25:48.272Z,178.00
2023-06-16T05:26:48.266Z,184.00
2023-06-16T05:27:48.253Z,204.00
2023-06-16T05:28:48.252Z,213.00
2023-06-16T05:29:48.232Z,201.00
2023-06-16T05:30:48.274Z,228.00
2023-06-16T05:31:48.213Z,222.00
2023-06-16T05:32:48.248Z,237.00
2023-06-16T05:33:48.184Z,222.00
2023-06-16T05:34:48.182Z,261.00
2023-06-16T05:35:48.176Z,201.00
2023-06-16T05:36:48.149Z,321.00
2023-06-16T05:37:48.149Z,224.00
2023-06-16T05:38:48.146Z,314.00
2023-06-16T05:39:48.162Z,254.00
2023-06-16T05:40:48.128Z,206.00
2023-06-16T05:41:48.095Z,325.00
2023-06-16T05:42:48.090Z,287.00
2023-06-16T05:43:48.076Z,264.00
2023-06-16T05:44:48.077Z,259.00
2023-06-16T05:45:48.040Z,277.00
2023-06-16T05:46:48.041Z,249.00
2023-06-16T05:47:48.087Z,224.00
2023-06-16T05:48:48.041Z,200.00
2023-06-16T05:49:48.023Z,159.00
2023-06-16T05:50:47.998Z,169.00
2023-06-16T05:51:48.005Z,310.00
2023-06-16T05:52:47.978Z,220.00
2023-06-16T05:53:47.961Z,164.00
2023-06-16T05:54:47.957Z,158.00
2023-06-16T05:55:47.931Z,159.00
2023-06-16T05:56:47.929Z,153.00
2023-06-16T05:57:47.910Z,153.00
2023-06-16T05:58:47.921Z,150.00
2023-06-16T05:59:47.906Z,162.00
2023-06-16T06:00:47.889Z,151.00
2023-06-16T06:01:47.876Z,148.00
2023-06-16T06:02:47.965Z,144.00
2023-06-16T06:03:48.093Z,139.00
2023-06-16T06:04:47.874Z,137.00
2023-06-16T06:05:47.848Z,134.00
2023-06-16T06:06:47.834Z,139.00
2023-06-16T06:07:47.902Z,135.00
2023-06-16T06:08:47.857Z,136.00
2023-06-16T06:09:47.788Z,134.00
2023-06-16T06:10:47.829Z,132.00
2023-06-16T06:11:47.799Z,131.00
2023-06-16T06:12:47.823Z,129.00
2023-06-16T06:13:47.732Z,128.00
2023-06-16T06:14:47.740Z,127.00
2023-06-16T06:15:47.771Z,127.00
2023-06-16T06:16:48.464Z,126.00
2023-06-16T06:17:47.737Z,127.00
2023-06-16T06:18:47.677Z,127.00
2023-06-16T06:19:47.665Z,127.00
2023-06-16T06:20:47.662Z,129.00
2023-06-16T06:21:47.649Z,133.00
2023-06-16T06:22:48.930Z,135.00
2023-06-16T06:23:47.641Z,133.00
2023-06-16T06:24:47.622Z,135.00
2023-06-16T06:25:47.615Z,135.00
2023-06-16T06:26:47.616Z,139.00
2023-06-16T06:27:47.622Z,136.00
2023-06-16T06:28:47.577Z,138.00
2023-06-16T06:29:47.576Z,144.00
2023-06-16T06:30:47.567Z,141.00
2023-06-16T06:31:47.540Z,148.00
2023-06-16T06:32:47.532Z,150.00
2023-06-16T06:33:47.536Z,153.00
2023-06-16T06:34:47.551Z,159.00
2023-06-16T06:35:47.507Z,162.00
2023-06-16T06:36:47.482Z,167.00
2023-06-16T06:37:47.489Z,170.00
2023-06-16T06:38:47.466Z,179.00
2023-06-16T06:39:47.466Z,187.00
2023-06-16T06:40:47.498Z,188.00
2023-06-16T06:41:47.436Z,197.00
2023-06-16T06:42:47.422Z,205.00
2023-06-16T06:43:47.403Z,211.00
2023-06-16T06:44:47.413Z,220.00
2023-06-16T06:45:47.383Z,237.00
2023-06-16T06:46:47.499Z,243.00
2023-06-16T06:47:47.443Z,252.00
2023-06-16T06:48:47.423Z,265.00
2023-06-16T06:49:47.427Z,268.00
2023-06-16T06:50:47.368Z,270.00
2023-06-16T06:51:47.321Z,270.00
2023-06-16T06:52:47.320Z,267.00
2023-06-16T06:53:47.337Z,272.00
2023-06-16T06:54:47.295Z,284.00
2023-06-16T06:55:47.265Z,281.00
2023-06-16T06:56:47.277Z,326.00
2023-06-16T06:57:47.252Z,273.00
2023-06-16T06:58:47.257Z,379.00
2023-06-16T06:59:47.252Z,349.00
2023-06-16T07:00:47.276Z,325.00
2023-06-16T07:01:47.316Z,199.00
2023-06-16T07:02:47.359Z,427.00
2023-06-16T07:03:47.272Z,427.00
2023-06-16T07:04:47.200Z,416.00
2023-06-16T07:05:47.176Z,405.00
2023-06-16T07:06:47.152Z,402.00
2023-06-16T07:07:47.140Z,390.00
2023-06-16T07:08:47.138Z,383.00
2023-06-16T07:09:47.121Z,380.00
2023-06-16T07:10:47.141Z,488.00
2023-06-16T07:11:47.117Z,301.00
2023-06-16T07:12:47.098Z,371.00
2023-06-16T07:13:47.084Z,408.00
2023-06-16T07:14:47.067Z,249.00
2023-06-16T07:15:47.141Z,356.00
2023-06-16T07:16:47.070Z,279.00
2023-06-16T07:17:47.035Z,414.00
2023-06-16T07:18:47.051Z,313.00
2023-06-16T07:19:47.009Z,267.00
2023-06-16T07:20:47.005Z,252.00
2023-06-16T07:21:46.978Z,248.00
2023-06-16T07:22:47.055Z,248.00
2023-06-16T07:23:47.005Z,245.00
2023-06-16T07:24:46.956Z,248.00
2023-06-16T07:25:46.961Z,250.00
2023-06-16T07:26:46.977Z,260.00
2023-06-16T07:27:46.922Z,264.00
2023-06-16T07:28:46.934Z,259.00
2023-06-16T07:29:46.921Z,260.00
2023-06-16T07:30:46.894Z,262.00
2023-06-16T07:31:46.886Z,253.00
2023-06-16T07:32:46.940Z,253.00
2023-06-16T07:33:46.844Z,266.00
2023-06-16T07:34:46.848Z,272.00
2023-06-16T07:35:46.852Z,252.00
2023-06-16T07:36:46.841Z,268.00
2023-06-16T07:37:46.803Z,279.00
2023-06-16T07:38:46.797Z,271.00
2023-06-16T07:39:46.820Z,251.00
2023-06-16T07:40:46.800Z,277.00
2023-06-16T07:41:46.785Z,273.00
2023-06-16T07:42:46.946Z,256.00
2023-06-16T07:43:46.747Z,250.00
2023-06-16T07:44:46.754Z,256.00
2023-06-16T07:45:46.761Z,260.00
2023-06-16T07:46:46.808Z,269.00
2023-06-16T07:47:46.821Z,258.00
2023-06-16T07:48:46.707Z,254.00
2023-06-16T07:49:46.743Z,252.00
2023-06-16T07:50:46.705Z,239.00
2023-06-16T07:51:46.662Z,239.00
2023-06-16T07:52:46.645Z,236.00
2023-06-16T07:53:46.670Z,234.00
2023-06-16T07:54:46.616Z,188.00
2023-06-16T07:55:46.618Z,339.00
2023-06-16T07:56:46.596Z,291.00
2023-06-16T07:57:46.588Z,322.00
2023-06-16T07:58:46.591Z,241.00
2023-06-16T07:59:46.595Z,236.00
2023-06-16T08:00:46.564Z,373.00
2023-06-16T08:01:46.676Z,362.00
2023-06-16T08:02:46.668Z,348.00
2023-06-16T08:03:46.699Z,348.00
2023-06-16T08:04:46.627Z,345.00
2023-06-16T08:05:46.524Z,347.00
2023-06-16T08:06:46.489Z,353.00
2023-06-16T08:07:46.477Z,359.00
2023-06-16T08:08:46.483Z,487.00
2023-06-16T08:09:46.453Z,294.00
2023-06-16T08:10:46.511Z,390.00
2023-06-16T08:11:46.435Z,184.00
2023-06-16T08:12:46.488Z,360.00
2023-06-16T08:13:46.403Z,201.00
2023-06-16T08:14:46.387Z,413.00
2023-06-16T08:15:46.430Z,271.00
2023-06-16T08:16:46.382Z,320.00
2023-06-16T08:17:46.470Z,318.00
2023-06-16T08:18:46.355Z,343.00
2023-06-16T08:19:46.342Z,340.00
2023-06-16T08:20:46.324Z,341.00
2023-06-16T08:21:46.336Z,333.00
2023-06-16T08:22:46.323Z,336.00
2023-06-16T08:23:46.353Z,322.00
2023-06-16T08:24:46.271Z,317.00
2023-06-16T08:25:46.300Z,324.00
2023-06-16T08:26:46.283Z,314.00
2023-06-16T08:27:46.245Z,374.00
2023-06-16T08:28:46.280Z,392.00
2023-06-16T08:29:46.238Z,325.00
2023-06-16T08:30:46.226Z,296.00
2023-06-16T08:31:46.202Z,200.00
2023-06-16T08:32:46.213Z,387.00
2023-06-16T08:33:46.198Z,264.00
2023-06-16T08:34:46.177Z,204.00
2023-06-16T08:35:46.167Z,391.00
2023-06-16T08:36:46.164Z,378.00
2023-06-16T08:37:46.141Z,372.00
2023-06-16T08:38:46.153Z,370.00
2023-06-16T08:39:46.108Z,357.00
2023-06-16T08:40:46.124Z,361.00
2023-06-16T08:41:46.097Z,356.00
2023-06-16T08:42:46.072Z,332.00
2023-06-16T08:43:46.105Z,350.00
2023-06-16T08:44:46.099Z,349.00
2023-06-16T08:45:46.050Z,358.00
2023-06-16T08:46:46.130Z,372.00
2023-06-16T08:47:46.068Z,390.00
2023-06-16T08:48:46.007Z,359.00
2023-06-16T08:49:46.004Z,392.00
2023-06-16T08:50:46.008Z,375.00
2023-06-16T08:51:46.000Z,384.00
2023-06-16T08:52:46.251Z,382.00
2023-06-16T08:53:45.969Z,381.00
2023-06-16T08:54:45.964Z,371.00
2023-06-16T08:55:45.943Z,376.00
2023-06-16T08:56:45.922Z,392.00
2023-06-16T08:57:45.923Z,391.00
2023-06-16T08:58:45.915Z,376.00
2023-06-16T08:59:45.895Z,388.00
2023-06-16T09:00:45.878Z,372.00
2023-06-16T09:01:45.893Z,378.00
2023-06-16T09:02:45.937Z,354.00
2023-06-16T09:03:45.947Z,500.00
2023-06-16T09:04:45.858Z,341.00
2023-06-16T09:05:45.838Z,241.00
2023-06-16T09:06:45.822Z,490.00
2023-06-16T09:07:45.811Z,370.00
2023-06-16T09:08:45.816Z,374.00
2023-06-16T09:09:45.799Z,314.00
2023-06-16T09:10:45.774Z,373.00
2023-06-16T09:11:45.813Z,300.00
2023-06-16T09:12:45.751Z,279.00
2023-06-16T09:13:45.736Z,269.00
2023-06-16T09:14:45.744Z,260.00
2023-06-16T09:15:45.733Z,254.00
2023-06-16T09:16:45.770Z,251.00
2023-06-16T09:17:45.772Z,239.00
2023-06-16T09:18:45.689Z,242.00
2023-06-16T09:19:45.678Z,254.00
2023-06-16T09:20:45.681Z,253.00
2023-06-16T09:21:48.079Z,246.00
2023-06-16T09:22:45.638Z,238.00
2023-06-16T09:23:45.692Z,225.00
2023-06-16T09:24:45.609Z,233.00
2023-06-16T09:25:45.603Z,236.00
2023-06-16T09:26:45.634Z,231.00
2023-06-16T09:27:45.613Z,230.00
2023-06-16T09:28:45.583Z,236.00
2023-06-16T09:29:45.560Z,231.00
2023-06-16T09:30:47.260Z,229.00
2023-06-16T09:31:45.545Z,228.00
2023-06-16T09:32:45.566Z,215.00
2023-06-16T09:33:45.527Z,245.00
2023-06-16T09:34:45.512Z,234.00
2023-06-16T09:35:45.529Z,236.00
2023-06-16T09:36:45.484Z,245.00
2023-06-16T09:37:45.470Z,245.00
2023-06-16T09:38:45.457Z,238.00
2023-06-16T09:39:45.460Z,144.00
2023-06-16T09:40:45.453Z,383.00
2023-06-16T09:41:45.446Z,273.00
2023-06-16T09:42:45.411Z,290.00
2023-06-16T09:43:45.415Z,263.00
2023-06-16T09:44:45.426Z,223.00
2023-06-16T09:45:45.424Z,144.00
2023-06-16T09:46:45.372Z,274.00
2023-06-16T09:47:45.447Z,348.00
2023-06-16T09:48:45.379Z,348.00
2023-06-16T09:49:45.356Z,338.00
2023-06-16T09:50:45.322Z,339.00
2023-06-16T09:51:45.327Z,335.00
2023-06-16T09:52:45.358Z,333.00
2023-06-16T09:53:45.306Z,332.00
2023-06-16T09:54:45.281Z,326.00
2023-06-16T09:55:45.288Z,330.00
2023-06-16T09:56:45.258Z,342.00
2023-06-16T09:57:45.301Z,354.00
2023-06-16T09:58:45.248Z,317.00
2023-06-16T09:59:45.242Z,336.00
2023-06-16T10:00:45.232Z,350.00
2023-06-16T10:01:45.245Z,335.00
2023-06-16T10:02:45.278Z,325.00
2023-06-16T10:03:47.158Z,353.00
2023-06-16T10:04:47.036Z,377.00
2023-06-16T10:05:45.178Z,340.00
2023-06-16T10:06:45.148Z,327.00
2023-06-16T10:07:45.153Z,292.00
2023-06-16T10:08:45.156Z,289.00
2023-06-16T10:09:58.730Z,361.00
2023-06-16T10:10:45.125Z,361.00
2023-06-16T10:11:45.116Z,355.00
2023-06-16T10:12:45.180Z,379.00
2023-06-16T10:13:45.079Z,486.00
2023-06-16T10:14:45.087Z,370.00
2023-06-16T10:15:45.062Z,315.00
2023-06-16T10:16:45.092Z,338.00
2023-06-16T10:17:45.188Z,303.00
2023-06-16T10:18:45.156Z,289.00
2023-06-16T10:19:45.010Z,283.00
2023-06-16T10:20:44.999Z,267.00
2023-06-16T10:21:44.987Z,286.00
2023-06-16T10:22:44.990Z,355.00
2023-06-16T10:23:45.001Z,308.00
2023-06-16T10:24:45.003Z,253.00
2023-06-16T10:25:44.958Z,359.00
2023-06-16T10:26:44.921Z,279.00
2023-06-16T10:27:44.942Z,387.00
2023-06-16T10:28:44.912Z,338.00
2023-06-16T10:29:44.951Z,362.00
2023-06-16T10:30:45.470Z,298.00
2023-06-16T10:31:44.909Z,317.00
2023-06-16T10:32:44.905Z,347.00
2023-06-16T10:33:44.854Z,296.00
2023-06-16T10:34:44.872Z,287.00
2023-06-16T10:35:44.858Z,306.00
2023-06-16T10:36:44.836Z,260.00
2023-06-16T10:37:44.810Z,213.00
2023-06-16T10:38:44.788Z,358.00
2023-06-16T10:39:44.916Z,411.00
2023-06-16T10:40:44.784Z,290.00
2023-06-16T10:41:44.783Z,283.00
2023-06-16T10:42:44.759Z,279.00
2023-06-16T10:43:44.774Z,282.00
2023-06-16T10:44:44.728Z,281.00
2023-06-16T10:45:44.733Z,278.00
2023-06-16T10:46:44.906Z,286.00
2023-06-16T10:47:44.941Z,261.00
2023-06-16T10:48:44.677Z,245.00
2023-06-16T10:49:44.680Z,346.00
2023-06-16T10:50:44.668Z,323.00
2023-06-16T10:51:44.672Z,284.00
2023-06-16T10:52:44.674Z,314.00
2023-06-16T10:53:44.629Z,320.00
2023-06-16T10:54:44.616Z,269.00
2023-06-16T10:55:44.619Z,245.00
2023-06-16T10:56:44.599Z,323.00
2023-06-16T10:57:44.607Z,317.00
2023-06-16T10:58:44.591Z,317.00
2023-06-16T10:59:44.591Z,312.00
2023-06-16T11:00:44.541Z,285.00
2023-06-16T11:01:44.573Z,288.00
2023-06-16T11:02:44.684Z,308.00
2023-06-16T11:03:44.644Z,293.00
2023-06-16T11:04:44.525Z,294.00
2023-06-16T11:05:44.500Z,287.00
2023-06-16T11:06:50.038Z,282.00
2023-06-16T11:07:44.504Z,294.00
2023-06-16T11:08:44.457Z,295.00
2023-06-16T11:09:44.475Z,302.00
2023-06-16T11:10:44.470Z,306.00
2023-06-16T11:11:44.442Z,328.00
2023-06-16T11:12:44.489Z,213.00
2023-06-16T11:13:44.414Z,479.00
2023-06-16T11:14:44.444Z,297.00
2023-06-16T11:15:44.407Z,319.00
2023-06-16T11:16:44.400Z,307.00
2023-06-16T11:17:44.431Z,389.00
2023-06-16T11:18:44.350Z,390.00
2023-06-16T11:19:44.368Z,377.00
2023-06-16T11:20:44.324Z,387.00
2023-06-16T11:21:44.335Z,398.00
2023-06-16T11:22:44.487Z,415.00
2023-06-16T11:23:44.297Z,386.00
2023-06-16T11:24:44.280Z,357.00
2023-06-16T11:25:44.292Z,427.00
2023-06-16T11:26:44.260Z,421.00
2023-06-16T11:27:44.299Z,301.00
2023-06-16T11:28:44.264Z,400.00
2023-06-16T11:29:44.227Z,402.00
2023-06-16T11:30:44.214Z,404.00
2023-06-16T11:31:44.309Z,419.00
2023-06-16T11:32:44.258Z,413.00
2023-06-16T11:33:44.192Z,436.00
2023-06-16T11:34:44.177Z,434.00
2023-06-16T11:35:44.166Z,440.00
2023-06-16T11:36:44.153Z,516.00
2023-06-16T11:37:44.148Z,414.00
2023-06-16T11:38:44.134Z,334.00
2023-06-16T11:39:44.123Z,598.00
2023-06-16T11:40:44.098Z,229.00
2023-06-16T11:41:53.888Z,462.00
2023-06-16T11:42:44.101Z,463.00
2023-06-16T11:43:44.097Z,425.00
2023-06-16T11:44:44.071Z,544.00
2023-06-16T11:45:44.047Z,429.00
2023-06-16T11:46:44.102Z,486.00
2023-06-16T11:47:44.078Z,408.00
2023-06-16T11:48:44.045Z,409.00
2023-06-16T11:49:44.039Z,380.00
2023-06-16T11:50:43.995Z,420.00
2023-06-16T11:51:44.025Z,431.00
2023-06-16T11:52:43.985Z,389.00
2023-06-16T11:53:43.969Z,441.00
2023-06-16T11:54:43.980Z,397.00
2023-06-16T11:55:43.942Z,351.00
2023-06-16T11:56:43.950Z,473.00
2023-06-16T11:57:43.968Z,451.00
2023-06-16T11:58:43.943Z,622.00
2023-06-16T11:59:43.927Z,377.00
2023-06-16T12:00:43.944Z,374.00
2023-06-16T12:01:43.968Z,501.00
2023-06-16T12:02:43.976Z,397.00
2023-06-16T12:03:55.865Z,539.00
2023-06-16T12:04:43.906Z,406.00
2023-06-16T12:05:43.867Z,407.00
2023-06-16T12:06:43.816Z,391.00
2023-06-16T12:07:43.862Z,369.00
2023-06-16T12:08:43.808Z,367.00
2023-06-16T12:09:43.791Z,376.00
2023-06-16T12:10:43.802Z,359.00
2023-06-16T12:11:43.778Z,352.00
2023-06-16T12:12:43.843Z,346.00
2023-06-16T12:13:43.776Z,331.00
2023-06-16T12:14:43.745Z,331.00
2023-06-16T12:15:43.753Z,317.00
2023-06-16T12:16:43.745Z,314.00
2023-06-16T12:17:43.898Z,311.00
2023-06-16T12:18:43.740Z,307.00
2023-06-16T12:19:43.835Z,308.00
2023-06-16T12:20:43.753Z,307.00
2023-06-16T12:21:43.688Z,302.00
2023-06-16T12:22:43.700Z,306.00
2023-06-16T12:23:43.657Z,306.00
2023-06-16T12:24:43.678Z,302.00
2023-06-16T12:25:43.623Z,298.00
2023-06-16T12:26:43.610Z,290.00
2023-06-16T12:27:43.653Z,289.00
2023-06-16T12:28:43.626Z,299.00
2023-06-16T12:29:43.680Z,277.00
2023-06-16T12:30:43.578Z,283.00
2023-06-16T12:31:43.609Z,279.00
2023-06-16T12:32:43.644Z,295.00
2023-06-16T12:33:43.554Z,273.00
2023-06-16T12:34:43.554Z,253.00
2023-06-16T12:35:43.531Z,261.00
2023-06-16T12:36:43.569Z,261.00
2023-06-16T12:37:43.551Z,277.00
2023-06-16T12:38:44.373Z,254.00
2023-06-16T12:39:43.462Z,231.00
2023-06-16T12:40:43.497Z,250.00
2023-06-16T12:41:43.463Z,261.00
2023-06-16T12:42:43.493Z,258.00